createdAt,value
2022-09-22T00:00:59.513Z,90.10
2022-09-22T00:03:37.595Z,90.30
2022-09-22T00:06:13.864Z,90.30
2022-09-22T00:08:47.575Z,90.60
2022-09-22T00:11:24.081Z,90.50
2022-09-22T00:13:57.689Z,90.60
2022-09-22T00:16:40.965Z,90.50
2022-09-22T00:19:14.071Z,90.10
2022-09-22T00:21:44.741Z,90.30
2022-09-22T00:24:15.191Z,89.30
2022-09-22T00:26:45.914Z,88.40
2022-09-22T00:29:18.750Z,89.00
2022-09-22T00:31:49.052Z,88.10
2022-09-22T00:34:22.291Z,88.90
2022-09-22T00:36:53.520Z,88.60
2022-09-22T00:39:24.032Z,88.00
2022-09-22T00:41:56.096Z,88.40
2022-09-22T00:44:46.347Z,90.20
2022-09-22T00:47:35.346Z,91.10
2022-09-22T00:50:14.265Z,92.00
2022-09-22T00:53:05.478Z,92.10
2022-09-22T00:56:07.646Z,92.00
2022-09-22T00:58:48.818Z,91.60
2022-09-22T01:01:22.095Z,92.40
2022-09-22T01:03:54.234Z,92.20
2022-09-22T01:06:29.598Z,91.70
2022-09-22T01:09:02.284Z,91.20
2022-09-22T01:11:32.817Z,90.30
2022-09-22T01:14:21.100Z,90.40
2022-09-22T01:16:55.918Z,89.70
2022-09-22T01:19:53.813Z,87.50
2022-09-22T01:22:49.227Z,85.30
2022-09-22T01:25:40.956Z,84.40
2022-09-22T01:28:39.444Z,84.60
2022-09-22T01:31:15.530Z,83.90
2022-09-22T01:34:09.532Z,84.00
2022-09-22T01:36:40.821Z,83.30
2022-09-22T01:39:36.975Z,83.40
2022-09-22T01:42:25.100Z,84.60
2022-09-22T01:45:03.122Z,82.80
2022-09-22T01:47:42.544Z,83.00
2022-09-22T01:50:20.000Z,83.00
2022-09-22T01:52:51.978Z,82.40
2022-09-22T01:55:42.707Z,81.20
2022-09-22T01:58:17.997Z,82.30
2022-09-22T02:01:14.257Z,81.80
2022-09-22T02:04:09.635Z,81.50
2022-09-22T02:07:05.261Z,82.10
2022-09-22T02:09:38.295Z,81.80
2022-09-22T02:12:08.870Z,82.60
2022-09-22T02:14:39.327Z,81.50
2022-09-22T02:17:10.166Z,80.80
2022-09-22T02:19:42.669Z,80.20
2022-09-22T02:22:14.629Z,81.00
2022-09-22T02:24:47.656Z,80.50
2022-09-22T02:27:27.254Z,80.30
2022-09-22T02:30:12.768Z,79.90
2022-09-22T02:32:48.488Z,80.30
2022-09-22T02:35:19.604Z,81.20
2022-09-22T02:38:05.010Z,81.00
2022-09-22T02:40:50.662Z,79.50
2022-09-22T02:43:48.492Z,80.40
2022-09-22T02:46:18.294Z,80.70
2022-09-22T02:49:02.612Z,80.90
2022-09-22T02:51:33.997Z,81.00
2022-09-22T02:54:05.638Z,80.30
2022-09-22T02:56:36.060Z,81.20
2022-09-22T02:59:06.433Z,81.60
2022-09-22T03:01:36.741Z,82.00
2022-09-22T03:04:08.184Z,82.00
2022-09-22T03:06:40.053Z,82.50
2022-09-22T03:09:10.314Z,83.50
2022-09-22T03:11:40.522Z,86.00
2022-09-22T03:14:10.748Z,86.50
2022-09-22T03:16:41.732Z,87.70
2022-09-22T03:19:12.085Z,88.30
2022-09-22T03:21:42.379Z,88.90
2022-09-22T03:24:12.672Z,89.60
2022-09-22T03:26:42.872Z,89.70
2022-09-22T03:29:13.258Z,89.10
2022-09-22T03:31:44.538Z,90.20
2022-09-22T03:34:14.976Z,89.60
2022-09-22T03:36:45.382Z,88.60
2022-09-22T03:39:15.593Z,88.00
2022-09-22T03:41:46.704Z,87.70
2022-09-22T03:44:16.951Z,88.20
2022-09-22T03:46:47.177Z,88.30
2022-09-22T03:49:17.362Z,86.50
2022-09-22T03:51:48.115Z,86.50
2022-09-22T03:54:18.335Z,85.00
2022-09-22T03:56:48.947Z,84.80
2022-09-22T03:59:20.447Z,82.60
2022-09-22T04:01:53.518Z,80.70
2022-09-22T04:04:26.784Z,80.20
2022-09-22T04:06:57.038Z,81.10
2022-09-22T04:09:27.268Z,80.40
2022-09-22T04:11:57.851Z,80.40
2022-09-22T04:14:28.421Z,81.00
2022-09-22T04:16:59.731Z,81.20
2022-09-22T04:19:30.840Z,81.30
2022-09-22T04:22:01.017Z,81.90
2022-09-22T04:24:31.270Z,81.80
2022-09-22T04:27:18.966Z,79.80
2022-09-22T04:29:50.857Z,80.30
2022-09-22T04:32:21.396Z,81.90
2022-09-22T04:34:51.929Z,82.30
2022-09-22T04:37:22.285Z,82.60
2022-09-22T04:39:52.698Z,80.80
2022-09-22T04:42:23.392Z,81.70
2022-09-22T04:44:53.790Z,82.10
2022-09-22T04:47:24.109Z,80.90
2022-09-22T04:49:54.368Z,81.50
2022-09-22T04:52:25.419Z,81.60
2022-09-22T04:54:55.610Z,82.30
2022-09-22T04:57:26.255Z,81.40
2022-09-22T04:59:56.480Z,82.30
2022-09-22T05:02:26.691Z,81.90
2022-09-22T05:04:57.442Z,83.40
2022-09-22T05:07:27.747Z,84.80
2022-09-22T05:09:58.438Z,86.30
2022-09-22T05:12:29.227Z,88.60
2022-09-22T05:15:02.014Z,90.40
2022-09-22T05:17:32.195Z,90.90
2022-09-22T05:20:02.572Z,91.40
2022-09-22T05:22:36.366Z,91.50
2022-09-22T05:25:15.924Z,91.90
2022-09-22T05:27:48.676Z,92.00
2022-09-22T05:30:20.317Z,91.50
2022-09-22T05:32:51.410Z,91.80
2022-09-22T05:35:24.389Z,91.40
2022-09-22T05:37:55.821Z,91.30
2022-09-22T05:40:27.779Z,91.60
2022-09-22T05:42:58.083Z,91.80
2022-09-22T05:45:28.347Z,91.30
2022-09-22T05:48:01.928Z,91.30
2022-09-22T05:50:33.409Z,91.20
2022-09-22T05:53:14.074Z,90.90
2022-09-22T05:55:46.520Z,90.60
2022-09-22T05:58:17.234Z,90.60
2022-09-22T06:00:49.131Z,90.70
2022-09-22T06:03:19.686Z,90.70
2022-09-22T06:05:50.244Z,90.00
2022-09-22T06:08:27.438Z,89.70
2022-09-22T06:10:57.651Z,88.70
2022-09-22T06:13:28.372Z,89.40
2022-09-22T06:15:59.205Z,89.70
2022-09-22T06:18:29.542Z,90.10
2022-09-22T06:21:00.072Z,90.10
2022-09-22T06:23:30.430Z,89.50
2022-09-22T06:26:01.574Z,90.20
2022-09-22T06:28:31.843Z,90.10
2022-09-22T06:31:03.017Z,90.80
2022-09-22T06:33:33.536Z,91.20
2022-09-22T06:36:04.385Z,91.60
2022-09-22T06:38:34.622Z,92.10
2022-09-22T06:41:06.086Z,92.50
2022-09-22T06:43:39.523Z,92.90
2022-09-22T06:46:11.420Z,93.50
2022-09-22T06:48:41.955Z,94.10
2022-09-22T06:51:14.102Z,94.30
2022-09-22T06:53:49.788Z,94.50
2022-09-22T06:56:22.096Z,95.00
2022-09-22T06:59:09.537Z,95.20
2022-09-22T07:01:41.694Z,95.20
2022-09-22T07:04:13.362Z,95.20
2022-09-22T07:06:44.516Z,95.00
2022-09-22T07:09:14.719Z,94.70
2022-09-22T07:11:45.504Z,94.70
2022-09-22T07:14:15.654Z,94.90
2022-09-22T07:16:46.855Z,95.10
2022-09-22T07:19:17.132Z,95.00
2022-09-22T07:21:49.256Z,95.10
2022-09-22T07:24:19.531Z,94.90
2022-09-22T07:26:49.871Z,95.10
2022-09-22T07:29:22.437Z,95.00
2022-09-22T07:31:52.867Z,95.40
2022-09-22T07:34:23.588Z,95.50
2022-09-22T07:36:54.713Z,95.80
2022-09-22T07:39:27.800Z,95.40
2022-09-22T07:41:58.835Z,95.60
2022-09-22T07:44:46.849Z,95.70
2022-09-22T07:47:17.016Z,95.50
2022-09-22T07:49:47.186Z,95.50
2022-09-22T07:52:17.894Z,95.70
2022-09-22T07:54:48.136Z,95.80
2022-09-22T07:57:18.490Z,95.90
2022-09-22T07:59:49.684Z,95.60
2022-09-22T08:02:20.006Z,95.70
2022-09-22T08:04:50.261Z,95.90
2022-09-22T08:07:20.465Z,96.00
2022-09-22T08:09:50.876Z,96.10
2022-09-22T08:12:22.160Z,95.90
2022-09-22T08:14:55.504Z,96.00
2022-09-22T08:17:26.717Z,95.80
2022-09-22T08:19:59.383Z,95.90
2022-09-22T08:22:30.830Z,95.80
2022-09-22T08:25:02.475Z,95.80
2022-09-22T08:27:32.815Z,95.90
2022-09-22T08:30:03.581Z,96.10
2022-09-22T08:32:34.230Z,96.10
2022-09-22T08:35:05.962Z,95.90
2022-09-22T08:37:37.739Z,96.00
2022-09-22T08:40:11.361Z,96.20
2022-09-22T08:42:43.333Z,96.30
2022-09-22T08:45:31.082Z,96.10
2022-09-22T08:48:34.015Z,96.00
2022-09-22T08:51:48.940Z,96.20
2022-09-22T08:54:21.071Z,96.20
2022-09-22T08:56:59.636Z,96.10
2022-09-22T08:59:48.191Z,96.40
2022-09-22T09:02:40.506Z,96.60
2022-09-22T09:05:32.775Z,96.30
2022-09-22T09:08:39.885Z,96.60
2022-09-22T09:11:12.941Z,96.70
2022-09-22T09:14:10.115Z,96.60
2022-09-22T09:16:47.263Z,96.50
2022-09-22T09:19:26.105Z,96.70
2022-09-22T09:22:03.635Z,96.80
2022-09-22T09:27:43.540Z,96.80
2022-09-22T09:30:21.619Z,96.90
2022-09-22T09:33:06.510Z,96.70
2022-09-22T09:35:47.184Z,96.70
2022-09-22T09:38:43.582Z,96.70
2022-09-22T09:41:16.148Z,96.60
2022-09-22T09:43:48.055Z,96.30
2022-09-22T09:46:28.237Z,96.40
2022-09-22T09:49:16.085Z,96.60
2022-09-22T09:51:53.531Z,96.60
2022-09-22T09:54:24.395Z,96.30
2022-09-22T09:57:12.908Z,96.40
2022-09-22T10:00:06.597Z,96.40
2022-09-22T10:03:03.396Z,96.20
2022-09-22T10:05:37.526Z,96.10
2022-09-22T10:08:30.215Z,96.20
2022-09-22T10:11:03.566Z,96.20
2022-09-22T10:13:39.913Z,96.00
2022-09-22T10:16:37.521Z,96.20
2022-09-22T10:19:33.619Z,96.30
2022-09-22T10:22:29.048Z,96.20
2022-09-22T10:25:08.146Z,96.20
2022-09-22T10:27:38.433Z,96.20
2022-09-22T10:30:23.496Z,96.20
2022-09-22T10:33:17.820Z,95.90
2022-09-22T10:36:11.827Z,96.20
2022-09-22T10:38:44.857Z,96.30
2022-09-22T10:41:30.213Z,96.00
2022-09-22T10:44:27.385Z,95.60
2022-09-22T10:47:24.798Z,95.70
2022-09-22T10:50:31.650Z,95.60
2022-09-22T10:53:28.109Z,95.60
2022-09-22T10:56:39.761Z,95.40
2022-09-22T10:59:26.062Z,95.50
2022-09-22T11:02:02.832Z,95.60
2022-09-22T11:04:53.037Z,95.80
2022-09-22T11:07:53.338Z,95.90
2022-09-22T11:10:54.605Z,96.00
2022-09-22T11:13:45.302Z,95.70
2022-09-22T11:16:25.455Z,95.70
2022-09-22T11:19:02.450Z,95.50
2022-09-22T11:21:43.667Z,95.70
2022-09-22T11:24:19.971Z,95.80
2022-09-22T11:26:58.915Z,95.80
2022-09-22T11:29:47.165Z,95.80
2022-09-22T11:32:36.306Z,95.50
2022-09-22T11:35:22.012Z,95.70
2022-09-22T11:38:32.473Z,95.80
2022-09-22T11:41:34.504Z,95.50
2022-09-22T11:44:45.441Z,95.60
2022-09-22T11:47:39.991Z,95.30
2022-09-22T11:50:35.461Z,95.60
2022-09-22T11:53:31.823Z,95.80
2022-09-22T11:56:33.215Z,95.90
2022-09-22T11:59:27.723Z,95.80
2022-09-22T12:02:06.404Z,95.80
2022-09-22T12:04:46.808Z,95.90
2022-09-22T12:07:28.550Z,96.00
2022-09-22T12:10:09.162Z,95.70
2022-09-22T12:12:41.211Z,96.00
2022-09-22T12:15:37.444Z,96.10
2022-09-22T12:18:18.202Z,96.10
2022-09-22T12:20:52.464Z,95.90
2022-09-22T12:23:47.702Z,96.00
2022-09-22T12:26:32.382Z,95.90
2022-09-22T12:29:10.774Z,95.80
2022-09-22T12:31:42.762Z,95.50
2022-09-22T12:34:25.912Z,95.70
2022-09-22T12:37:01.281Z,95.50
2022-09-22T12:39:35.437Z,95.60
2022-09-22T12:42:20.187Z,95.70
2022-09-22T12:45:01.649Z,95.70
2022-09-22T12:47:55.559Z,95.60
2022-09-22T12:50:35.248Z,95.70
2022-09-22T12:53:31.907Z,95.60
2022-09-22T12:56:03.609Z,95.90
2022-09-22T12:58:35.249Z,96.00
2022-09-22T13:01:35.406Z,95.80
2022-09-22T13:04:16.485Z,95.80
2022-09-22T13:06:48.121Z,96.10
2022-09-22T13:09:27.565Z,95.90
2022-09-22T13:12:17.183Z,95.70
2022-09-22T13:15:22.352Z,95.90
2022-09-22T13:17:53.383Z,95.90
2022-09-22T13:20:26.399Z,95.80
2022-09-22T13:22:58.370Z,95.80
2022-09-22T13:25:34.076Z,95.60
2022-09-22T13:28:10.406Z,95.60
2022-09-22T13:30:43.240Z,95.50
2022-09-22T13:33:25.185Z,95.50
2022-09-22T13:36:28.032Z,95.50
2022-09-22T13:39:03.143Z,95.40
2022-09-22T13:41:42.774Z,95.50
2022-09-22T13:44:15.942Z,95.60
2022-09-22T13:46:50.117Z,95.60
2022-09-22T13:49:31.086Z,95.60
2022-09-22T13:52:13.144Z,95.50
2022-09-22T13:54:43.908Z,95.50
2022-09-22T13:57:29.082Z,95.50
2022-09-22T14:00:06.014Z,95.40
2022-09-22T14:02:37.270Z,95.50
2022-09-22T14:05:20.296Z,95.50
2022-09-22T14:08:10.549Z,95.30
2022-09-22T14:10:45.136Z,95.20
2022-09-22T14:13:44.889Z,95.20
2022-09-22T14:16:27.212Z,95.20
2022-09-22T14:19:01.824Z,95.20
2022-09-22T14:21:33.733Z,95.30
2022-09-22T14:24:04.539Z,95.30
2022-09-22T14:26:44.258Z,95.40
2022-09-22T14:29:27.523Z,95.60
2022-09-22T14:32:12.501Z,95.50
2022-09-22T14:34:47.937Z,95.60
2022-09-22T14:37:41.114Z,95.60
2022-09-22T14:40:25.342Z,95.80
2022-09-22T14:43:07.222Z,95.90
2022-09-22T14:46:00.697Z,95.90
2022-09-22T14:48:36.632Z,96.00
2022-09-22T14:51:17.336Z,96.00
2022-09-22T14:53:53.016Z,96.00
2022-09-22T14:56:30.657Z,96.00
2022-09-22T14:59:29.205Z,95.80
2022-09-22T15:02:17.683Z,95.80
2022-09-22T15:04:55.353Z,96.00
2022-09-22T15:07:32.504Z,95.90
2022-09-22T15:10:07.206Z,96.00
2022-09-22T15:12:49.356Z,96.10
2022-09-22T15:15:23.861Z,96.20
2022-09-22T15:18:21.426Z,96.20
2022-09-22T15:21:00.770Z,96.20
2022-09-22T15:23:43.449Z,96.20
2022-09-22T15:26:25.610Z,96.20
2022-09-22T15:29:01.101Z,96.10
2022-09-22T15:31:33.836Z,96.10
2022-09-22T15:34:05.321Z,96.00
2022-09-22T15:36:39.098Z,96.10
2022-09-22T15:39:18.514Z,95.70
2022-09-22T15:41:52.031Z,95.60
2022-09-22T15:44:23.186Z,95.70
2022-09-22T15:46:56.302Z,95.50
2022-09-22T15:49:28.030Z,95.30
2022-09-22T15:51:59.509Z,95.20
2022-09-22T15:54:31.313Z,95.30
2022-09-22T15:57:03.695Z,95.40
2022-09-22T15:59:36.769Z,95.40
2022-09-22T16:02:14.055Z,95.30
2022-09-22T16:04:47.605Z,95.30
2022-09-22T16:07:18.167Z,95.10
2022-09-22T16:09:49.938Z,95.20
2022-09-22T16:12:23.321Z,94.90
2022-09-22T16:14:53.815Z,95.10
2022-09-22T16:17:25.815Z,94.90
2022-09-22T16:19:56.153Z,95.00
2022-09-22T16:22:27.130Z,94.80
2022-09-22T16:24:57.920Z,94.80
2022-09-22T16:27:31.573Z,94.80
2022-09-22T16:30:02.368Z,94.70
2022-09-22T16:32:34.182Z,94.80
2022-09-22T16:35:05.472Z,94.80
2022-09-22T16:37:36.996Z,94.70
2022-09-22T16:40:07.785Z,94.90
2022-09-22T16:42:40.786Z,94.70
2022-09-22T16:45:11.211Z,94.80
2022-09-22T16:47:41.409Z,95.00
2022-09-22T16:50:13.963Z,94.90
2022-09-22T16:52:44.094Z,95.00
2022-09-22T16:55:14.789Z,95.00
2022-09-22T16:57:44.946Z,95.00
2022-09-22T17:00:15.554Z,95.10
2022-09-22T17:02:48.570Z,95.30
2022-09-22T17:05:19.202Z,95.30
2022-09-22T17:07:53.541Z,95.20
2022-09-22T17:10:25.536Z,95.20
2022-09-22T17:12:57.666Z,95.10
2022-09-22T17:15:28.027Z,95.10
2022-09-22T17:17:58.150Z,95.00
2022-09-22T17:20:28.560Z,95.10
2022-09-22T17:22:59.286Z,95.00
2022-09-22T17:25:30.739Z,94.90
2022-09-22T17:28:01.178Z,95.10
2022-09-22T17:30:32.799Z,95.20
2022-09-22T17:33:04.383Z,95.10
2022-09-22T17:35:34.551Z,95.20
2022-09-22T17:38:05.728Z,95.80
2022-09-22T17:40:37.055Z,95.20
2022-09-22T17:43:07.272Z,95.20
2022-09-22T17:45:39.923Z,95.20
2022-09-22T17:48:28.441Z,95.30
2022-09-22T17:51:18.166Z,95.40
2022-09-22T17:54:06.070Z,95.30
2022-09-22T17:56:36.243Z,95.30
2022-09-22T17:59:06.554Z,95.20
2022-09-22T18:01:36.873Z,95.30
2022-09-22T18:04:07.431Z,95.20
2022-09-22T18:06:37.610Z,95.30
2022-09-22T18:09:09.459Z,95.30
2022-09-22T18:11:45.273Z,95.40
2022-09-22T18:14:15.981Z,95.50
2022-09-22T18:16:46.219Z,95.50
2022-09-22T18:19:16.809Z,95.60
2022-09-22T18:21:47.017Z,95.60
2022-09-22T18:24:20.345Z,95.80
2022-09-22T18:26:54.790Z,96.00
2022-09-22T18:29:25.554Z,96.10
2022-09-22T18:32:00.631Z,96.00
2022-09-22T18:34:34.924Z,95.80
2022-09-22T18:37:07.701Z,95.60
2022-09-22T18:39:37.849Z,95.60
2022-09-22T18:42:12.582Z,96.00
2022-09-22T18:44:43.867Z,95.50
2022-09-22T18:47:19.941Z,95.50
2022-09-22T18:49:52.344Z,95.40
2022-09-22T18:52:26.494Z,95.50
2022-09-22T18:54:57.658Z,95.80
2022-09-22T18:57:28.945Z,95.70
2022-09-22T19:00:01.546Z,95.70
2022-09-22T19:02:31.978Z,95.80
2022-09-22T19:05:02.695Z,96.00
2022-09-22T19:07:43.555Z,95.90
2022-09-22T19:10:24.361Z,96.00
2022-09-22T19:12:56.301Z,96.00
2022-09-22T19:15:27.323Z,96.00
2022-09-22T19:17:57.494Z,96.10
2022-09-22T19:20:28.324Z,95.90
2022-09-22T19:22:58.843Z,95.80
2022-09-22T19:25:29.462Z,95.70
2022-09-22T19:27:59.763Z,95.70
2022-09-22T19:30:31.659Z,95.80
2022-09-22T19:33:02.485Z,96.00
2022-09-22T19:35:35.948Z,96.10
2022-09-22T19:38:08.642Z,96.10
2022-09-22T19:40:38.882Z,96.10
2022-09-22T19:43:09.327Z,96.10
2022-09-22T19:45:40.033Z,96.30
2022-09-22T19:48:11.776Z,96.40
2022-09-22T19:50:42.095Z,96.50
2022-09-22T19:53:12.374Z,96.60
2022-09-22T19:55:43.195Z,96.60
2022-09-22T19:58:13.369Z,96.70
2022-09-22T20:00:45.370Z,96.70
2022-09-22T20:03:15.702Z,96.70
2022-09-22T20:05:47.374Z,96.70
2022-09-22T20:08:18.195Z,96.80
2022-09-22T20:11:05.948Z,96.80
2022-09-22T20:14:01.195Z,96.80
2022-09-22T20:16:32.578Z,96.80
2022-09-22T20:19:03.302Z,96.70
2022-09-22T20:21:34.911Z,96.90
2022-09-22T20:24:06.883Z,96.80
2022-09-22T20:26:38.411Z,97.00
2022-09-22T20:29:09.931Z,97.10
2022-09-22T20:31:40.841Z,97.20
2022-09-22T20:34:16.565Z,97.10
2022-09-22T20:36:48.365Z,97.00
2022-09-22T20:39:18.572Z,97.00
2022-09-22T20:41:48.707Z,97.00
2022-09-22T20:44:19.938Z,97.00
2022-09-22T20:46:53.325Z,97.00
2022-09-22T20:49:23.979Z,96.90
2022-09-22T20:51:54.231Z,96.80
2022-09-22T20:54:26.084Z,96.80
2022-09-22T20:56:56.918Z,96.60
2022-09-22T20:59:27.547Z,96.40
2022-09-22T21:02:00.246Z,96.30
2022-09-22T21:04:31.976Z,96.20
2022-09-22T21:07:02.513Z,95.80
2022-09-22T21:09:50.685Z,95.70
2022-09-22T21:12:21.009Z,95.60
2022-09-22T21:14:51.194Z,95.50
2022-09-22T21:17:22.130Z,95.40
2022-09-22T21:19:52.812Z,95.10
2022-09-22T21:22:23.599Z,95.00
2022-09-22T21:24:54.231Z,94.80
2022-09-22T21:27:24.490Z,94.90
2022-09-22T21:29:55.576Z,94.90
2022-09-22T21:32:26.245Z,95.00
2022-09-22T21:34:57.901Z,94.90
2022-09-22T21:37:28.378Z,94.80
2022-09-22T21:39:58.987Z,94.80
2022-09-22T21:42:29.343Z,94.60
2022-09-22T21:44:59.827Z,94.70
2022-09-22T21:47:30.028Z,94.60
2022-09-22T21:50:00.847Z,94.40
2022-09-22T21:52:31.361Z,94.40
2022-09-22T21:55:01.524Z,94.30
2022-09-22T21:57:34.335Z,94.10
2022-09-22T22:00:06.099Z,94.40
2022-09-22T22:02:55.999Z,94.00
2022-09-22T22:05:26.639Z,94.00
2022-09-22T22:07:56.956Z,94.00
2022-09-22T22:10:27.187Z,93.80
2022-09-22T22:12:58.643Z,93.60
2022-09-22T22:15:28.879Z,93.60
2022-09-22T22:17:59.153Z,93.30
2022-09-22T22:20:29.802Z,93.50
2022-09-22T22:23:00.442Z,92.40
2022-09-22T22:25:31.413Z,92.30
2022-09-22T22:28:01.578Z,91.80
2022-09-22T22:30:31.897Z,92.10
2022-09-22T22:33:02.626Z,92.10
2022-09-22T22:35:33.277Z,91.50
2022-09-22T22:38:03.442Z,91.00
2022-09-22T22:40:33.889Z,90.50
2022-09-22T22:43:04.130Z,90.70
2022-09-22T22:45:34.318Z,90.90
2022-09-22T22:48:04.628Z,90.50
2022-09-22T22:50:34.944Z,90.40
2022-09-22T22:53:05.094Z,90.20
2022-09-22T22:55:36.307Z,89.20
2022-09-22T22:58:07.753Z,90.10
2022-09-22T23:00:37.983Z,90.10
2022-09-22T23:03:08.184Z,90.40
2022-09-22T23:05:44.107Z,90.10
2022-09-22T23:08:15.079Z,90.00
2022-09-22T23:10:45.475Z,89.00
2022-09-22T23:13:16.890Z,87.70
2022-09-22T23:15:47.400Z,87.00
2022-09-22T23:18:20.807Z,86.80
2022-09-22T23:20:51.851Z,86.80
2022-09-22T23:23:21.985Z,86.80
2022-09-22T23:25:53.381Z,86.90
2022-09-22T23:28:23.615Z,86.50
2022-09-22T23:31:02.733Z,87.10
2022-09-22T23:33:33.477Z,86.90
2022-09-22T23:36:03.885Z,87.50
2022-09-22T23:38:37.012Z,87.00
2022-09-22T23:41:08.276Z,87.30
2022-09-22T23:43:39.263Z,87.60
2022-09-22T23:46:11.651Z,86.80
2022-09-22T23:48:42.559Z,87.50
2022-09-22T23:51:13.695Z,87.90
2022-09-22T23:53:45.570Z,88.50
2022-09-22T23:56:16.224Z,87.60
2022-09-22T23:58:48.547Z,86.50
